Time;durP1;ratioP1;P1;durP2;ratioP2;P2;SDS_P1;SDS_P2;PMS_P1;PMS_P2;Temp;Humidity;BMP_temperature;BMP_pressure;BME280_temperature;BME280_humidity;BME280_pressure;Samples;Min_cycle;Max_cycle;Signal;HPM_P1;HPM_P2
2022/07/09 00:02:04;;;;;;;7.22;3.97;;;17.70;81.80;;;;;;5073193;28;20028;-47
2022/07/09 00:04:30;;;;;;;4.65;3.50;;;17.60;81.80;;;;;;5073320;28;20438;-46
2022/07/09 00:06:56;;;;;;;8.30;4.03;;;17.70;81.80;;;;;;5073379;28;20024;-50
2022/07/09 00:09:21;;;;;;;3.70;3.13;;;17.60;81.90;;;;;;5073629;28;20033;-47
2022/07/09 00:11:47;;;;;;;8.88;3.45;;;17.50;82.00;;;;;;5072872;28;20087;-47
2022/07/09 00:14:13;;;;;;;5.43;3.45;;;17.50;82.30;;;;;;5073151;28;20017;-48
2022/07/09 00:16:38;;;;;;;5.60;3.42;;;17.30;82.60;;;;;;5073470;28;20032;-48
2022/07/09 00:19:04;;;;;;;5.43;4.07;;;17.40;82.90;;;;;;5071905;28;20485;-48
2022/07/09 00:21:30;;;;;;;6.50;4.28;;;17.30;82.80;;;;;;5073250;28;20090;-48
2022/07/09 00:23:56;;;;;;;6.72;3.85;;;17.30;83.10;;;;;;5073132;28;20116;-46
2022/07/09 00:26:22;;;;;;;8.07;4.53;;;17.40;83.20;;;;;;5073040;28;20080;-46
2022/07/09 00:28:48;;;;;;;7.90;4.32;;;17.40;82.90;;;;;;5072891;28;20033;-48
2022/07/09 00:31:13;;;;;;;11.38;4.43;;;17.40;82.90;;;;;;5072866;28;20025;-48
2022/07/09 00:33:39;;;;;;;11.50;4.63;;;17.40;83.00;;;;;;5071456;28;20048;-47
2022/07/09 00:36:05;;;;;;;5.82;4.22;;;17.50;83.00;;;;;;5071434;28;20109;-47
2022/07/09 00:38:30;;;;;;;12.32;6.53;;;17.60;82.80;;;;;;5073241;28;20024;-47
2022/07/09 00:40:56;;;;;;;8.00;5.32;;;17.60;82.50;;;;;;5072645;28;20029;-48
2022/07/09 00:43:23;;;;;;;7.20;4.43;;;17.60;82.70;;;;;;5073034;28;20542;-47
2022/07/09 00:45:49;;;;;;;7.95;4.88;;;17.70;82.90;;;;;;5071299;28;20024;-47
2022/07/09 00:48:15;;;;;;;12.23;5.05;;;17.80;82.00;;;;;;5072743;28;20029;-49
2022/07/09 00:50:42;;;;;;;8.45;4.95;;;17.80;82.10;;;;;;5072619;28;20027;-48
2022/07/09 00:53:12;;;;;;;13.95;5.03;;;17.70;82.60;;;;;;5073016;28;20369;-47
2022/07/09 00:55:38;;;;;;;7.82;4.95;;;17.80;82.70;;;;;;5072770;28;20147;-49
2022/07/09 00:58:05;;;;;;;9.27;5.75;;;17.80;82.50;;;;;;5074005;28;20025;-47
2022/07/09 01:00:32;;;;;;;9.82;5.35;;;17.90;82.50;;;;;;5075287;28;20017;-48
2022/07/09 01:02:58;;;;;;;13.27;5.93;;;17.90;82.50;;;;;;5076444;28;20539;-48
2022/07/09 01:05:23;;;;;;;11.68;6.03;;;17.90;82.40;;;;;;5076686;28;20102;-47
2022/07/09 01:07:49;;;;;;;13.25;6.70;;;17.80;82.70;;;;;;5075145;28;20028;-49
2022/07/09 01:10:14;;;;;;;8.93;6.20;;;17.80;82.90;;;;;;5076708;28;20433;-46
2022/07/09 01:12:40;;;;;;;10.35;5.65;;;17.90;82.70;;;;;;5076042;28;20049;-47
2022/07/09 01:15:06;;;;;;;16.10;5.82;;;17.90;82.80;;;;;;5075996;28;20020;-47
2022/07/09 01:17:40;;;;;;;7.78;5.47;;;17.80;82.90;;;;;;5076002;28;20389;-49
2022/07/09 01:20:06;;;;;;;9.38;7.07;;;17.80;83.10;;;;;;5076397;28;20024;-46
2022/07/09 01:22:33;;;;;;;12.90;5.15;;;17.70;83.50;;;;;;5076302;28;20442;-48
2022/07/09 01:25:00;;;;;;;6.78;5.93;;;17.60;83.70;;;;;;5075774;28;20388;-47
2022/07/09 01:27:26;;;;;;;11.55;6.78;;;17.50;83.90;;;;;;5075728;28;20028;-48
2022/07/09 01:29:52;;;;;;;10.10;6.13;;;17.60;83.70;;;;;;5076031;28;20388;-48
2022/07/09 01:32:17;;;;;;;11.50;6.18;;;17.60;84.00;;;;;;5075691;28;20032;-46
2022/07/09 01:34:43;;;;;;;9.75;6.30;;;17.60;83.50;;;;;;5076857;28;20017;-47
2022/07/09 01:37:09;;;;;;;9.45;5.03;;;17.50;83.90;;;;;;5077012;28;20086;-48
2022/07/09 01:39:35;;;;;;;10.02;5.43;;;17.50;83.60;;;;;;5076036;28;20048;-47
2022/07/09 01:42:01;;;;;;;9.95;5.75;;;17.30;84.40;;;;;;5075942;28;20368;-48
2022/07/09 01:44:27;;;;;;;6.97;5.57;;;17.30;84.80;;;;;;5075615;28;20062;-47
2022/07/09 01:46:53;;;;;;;11.70;6.22;;;17.20;84.90;;;;;;5074357;28;20036;-46
2022/07/09 01:49:18;;;;;;;14.35;7.28;;;17.20;84.90;;;;;;5075494;28;20034;-47
2022/07/09 01:51:44;;;;;;;6.43;5.35;;;17.20;85.10;;;;;;5075404;28;20392;-46
2022/07/09 01:54:10;;;;;;;6.88;4.80;;;17.20;85.20;;;;;;5075645;28;20021;-50
2022/07/09 01:56:35;;;;;;;7.13;5.60;;;17.10;85.20;;;;;;5076227;28;20098;-50
2022/07/09 01:59:01;;;;;;;7.55;4.85;;;17.00;85.40;;;;;;5075729;28;20380;-47
2022/07/09 02:01:27;;;;;;;8.10;6.32;;;16.80;85.80;;;;;;5075615;28;20036;-45
2022/07/09 02:03:53;;;;;;;9.70;5.85;;;16.80;86.00;;;;;;5075587;28;20024;-48
2022/07/09 02:06:18;;;;;;;9.85;6.10;;;16.80;85.90;;;;;;5075316;28;20039;-47
2022/07/09 02:08:44;;;;;;;11.05;6.32;;;16.60;86.30;;;;;;5074902;28;20112;-47
2022/07/09 02:11:10;;;;;;;14.60;7.05;;;16.60;86.80;;;;;;5073538;28;20045;-46
2022/07/09 02:13:36;;;;;;;14.10;8.90;;;16.50;86.70;;;;;;5075020;28;20025;-48
2022/07/09 02:16:02;;;;;;;9.00;6.72;;;16.50;86.70;;;;;;5074963;28;20017;-48
2022/07/09 02:18:28;;;;;;;8.77;7.50;;;16.50;86.70;;;;;;5074886;28;20032;-46
2022/07/09 02:20:55;;;;;;;14.30;8.00;;;16.60;86.80;;;;;;5074900;28;20107;-47
2022/07/09 02:23:23;;;;;;;16.08;7.80;;;16.60;86.50;;;;;;5073552;28;20029;-46
2022/07/09 02:25:49;;;;;;;10.52;7.03;;;16.50;86.60;;;;;;5074656;28;20028;-47
2022/07/09 02:28:14;;;;;;;11.25;8.13;;;16.50;86.60;;;;;;5073307;28;20027;-47
2022/07/09 02:30:40;;;;;;;11.55;7.60;;;16.50;86.90;;;;;;5074872;28;20388;-47
2022/07/09 02:33:06;;;;;;;14.35;7.68;;;16.50;87.00;;;;;;5074812;28;20032;-47
2022/07/09 02:35:31;;;;;;;11.75;7.57;;;16.50;86.90;;;;;;5074536;28;20040;-47
2022/07/09 02:37:57;;;;;;;13.68;8.95;;;16.40;86.90;;;;;;5074938;28;20033;-49
2022/07/09 02:40:23;;;;;;;12.63;7.53;;;16.30;87.30;;;;;;5074393;28;20029;-47
2022/07/09 02:42:48;;;;;;;10.07;7.25;;;16.30;87.40;;;;;;5073161;28;20028;-47
2022/07/09 02:45:14;;;;;;;11.98;7.18;;;16.40;87.40;;;;;;5073484;28;20520;-47
2022/07/09 02:47:40;;;;;;;8.43;6.63;;;16.30;87.30;;;;;;5074308;28;20116;-47
2022/07/09 02:50:06;;;;;;;9.68;7.13;;;16.30;87.20;;;;;;5074237;28;20419;-47
2022/07/09 02:52:32;;;;;;;8.80;6.53;;;16.20;87.30;;;;;;5075132;28;20063;-46
2022/07/09 02:54:57;;;;;;;9.10;7.15;;;16.10;87.90;;;;;;5074264;28;20029;-47
2022/07/09 02:57:23;;;;;;;13.75;7.10;;;16.10;87.90;;;;;;5074080;28;20495;-48
2022/07/09 02:59:49;;;;;;;17.08;7.07;;;16.10;87.90;;;;;;5074042;28;20021;-48
2022/07/09 03:02:14;;;;;;;9.20;7.25;;;16.10;87.90;;;;;;5073948;28;20020;-48
2022/07/09 03:04:40;;;;;;;9.63;7.00;;;16.20;87.80;;;;;;5073915;28;20063;-49
2022/07/09 03:07:06;;;;;;;11.70;7.65;;;16.30;87.90;;;;;;5074125;28;20025;-47
2022/07/09 20:16:13;;;;;;;6.13;1.80;;;16.90;65.00;;;;;;5132084;27;20416;-40
2022/07/09 20:18:39;;;;;;;5.00;1.88;;;16.90;65.10;;;;;;5129933;28;20024;-40
2022/07/09 20:21:04;;;;;;;4.90;2.20;;;16.90;64.90;;;;;;5131752;28;20015;-39
2022/07/09 20:23:30;;;;;;;2.63;1.25;;;16.90;64.60;;;;;;5131855;28;20051;-39
2022/07/09 20:25:56;;;;;;;8.32;2.33;;;16.90;64.40;;;;;;5131490;28;20369;-38
2022/07/09 20:28:22;;;;;;;2.50;1.60;;;16.90;64.20;;;;;;5131244;28;20031;-39
2022/07/09 20:30:48;;;;;;;3.13;1.15;;;16.90;64.00;;;;;;5130998;28;20027;-38
2022/07/09 20:33:14;;;;;;;4.25;1.30;;;16.80;63.40;;;;;;5131327;28;20028;-39
2022/07/09 20:35:41;;;;;;;3.72;1.52;;;16.80;63.50;;;;;;5131060;28;20034;-38
2022/07/09 20:38:07;;;;;;;5.03;3.42;;;16.80;63.80;;;;;;5131179;28;20424;-39
2022/07/09 20:40:33;;;;;;;9.10;1.67;;;16.70;63.90;;;;;;5130679;28;20087;-39
2022/07/09 20:42:58;;;;;;;3.88;1.88;;;16.80;64.10;;;;;;5131174;28;20047;-39
2022/07/09 20:45:24;;;;;;;3.65;2.63;;;16.80;63.80;;;;;;5130855;28;20020;-38
2022/07/09 20:47:50;;;;;;;5.30;3.00;;;16.70;63.90;;;;;;5133650;28;20032;-39
2022/07/09 20:50:15;;;;;;;9.40;2.10;;;16.70;64.30;;;;;;5131696;27;20110;-39
2022/07/09 20:52:41;;;;;;;4.93;1.45;;;16.60;64.50;;;;;;5130795;28;20027;-39
2022/07/09 20:55:07;;;;;;;1.73;1.20;;;16.60;64.40;;;;;;5130908;28;20027;-39
2022/07/09 20:57:32;;;;;;;5.20;1.63;;;16.60;64.50;;;;;;5130506;28;20030;-40
2022/07/09 20:59:58;;;;;;;2.78;1.65;;;16.50;65.10;;;;;;5130835;28;20051;-38
2022/07/09 21:02:24;;;;;;;3.70;1.40;;;16.40;64.80;;;;;;5130783;28;20051;-41
2022/07/09 21:04:49;;;;;;;8.18;1.60;;;16.50;64.80;;;;;;5130532;28;20387;-38
2022/07/09 21:07:15;;;;;;;3.25;1.35;;;16.40;65.20;;;;;;5130401;28;20057;-39
2022/07/09 21:09:40;;;;;;;7.95;1.48;;;16.30;65.10;;;;;;5130051;28;20023;-38
2022/07/09 21:12:06;;;;;;;3.85;1.30;;;16.30;65.20;;;;;;5130816;28;20023;-39
2022/07/09 21:14:32;;;;;;;4.07;1.63;;;16.30;65.50;;;;;;5130693;28;20502;-38
2022/07/09 21:19:43;;;;;;;8.60;1.40;;;16.30;65.20;;;;;;5130548;28;20095;-39
2022/07/09 21:22:08;;;;;;;4.60;1.75;;;16.30;65.60;;;;;;5130379;28;20051;-38
2022/07/09 21:24:34;;;;;;;2.25;1.63;;;16.30;65.80;;;;;;5130262;28;20080;-38
2022/07/09 21:27:00;;;;;;;2.10;1.67;;;16.20;65.90;;;;;;5120031;28;20111;-39
2022/07/09 21:29:25;;;;;;;10.35;2.17;;;16.10;66.30;;;;;;5116311;28;20467;-39
2022/07/09 21:31:51;;;;;;;4.15;2.00;;;16.10;66.50;;;;;;5114927;28;20024;-39
2022/07/09 21:34:16;;;;;;;5.93;1.67;;;16.00;66.80;;;;;;5116256;28;20035;-39
2022/07/09 21:36:42;;;;;;;8.57;2.45;;;15.90;67.00;;;;;;5114528;28;20027;-38
2022/07/09 21:39:08;;;;;;;5.30;2.17;;;15.80;67.30;;;;;;5115794;28;20023;-38
2022/07/09 21:41:33;;;;;;;11.77;2.88;;;15.80;67.60;;;;;;5115890;28;20523;-39
2022/07/09 21:43:59;;;;;;;2.35;1.70;;;15.80;67.70;;;;;;5115837;28;20027;-38
2022/07/09 21:46:24;;;;;;;5.25;2.03;;;15.80;67.90;;;;;;5115651;28;20034;-39
2022/07/09 21:48:50;;;;;;;5.13;1.55;;;15.80;68.10;;;;;;5115992;28;20070;-39
2022/07/09 21:51:16;;;;;;;2.88;1.15;;;15.70;68.00;;;;;;5115748;28;20016;-38
2022/07/09 21:53:41;;;;;;;4.70;1.15;;;15.70;68.50;;;;;;5115735;28;20521;-39
2022/07/09 21:56:07;;;;;;;5.65;1.20;;;15.70;68.50;;;;;;5115818;28;20031;-39
2022/07/09 21:58:33;;;;;;;12.40;1.85;;;15.70;68.30;;;;;;5115723;28;20102;-38
2022/07/09 22:00:58;;;;;;;7.63;1.70;;;15.60;68.40;;;;;;5115613;28;20016;-38
2022/07/09 22:03:25;;;;;;;6.72;2.08;;;15.50;68.40;;;;;;5115362;28;20030;-38
2022/07/09 22:05:51;;;;;;;1.83;1.73;;;15.50;68.50;;;;;;5115932;28;20031;-40
2022/07/09 22:08:18;;;;;;;5.45;1.33;;;15.40;68.80;;;;;;5115326;28;20032;-38
2022/07/09 22:10:44;;;;;;;5.38;1.92;;;15.30;68.80;;;;;;5115883;28;20058;-40
2022/07/09 22:13:10;;;;;;;9.93;2.08;;;15.30;68.80;;;;;;5114559;28;20032;-40
2022/07/09 22:15:35;;;;;;;5.95;1.25;;;15.30;68.60;;;;;;5115233;28;20049;-40
2022/07/09 22:18:01;;;;;;;3.40;1.15;;;15.30;68.70;;;;;;5115651;28;20020;-38
2022/07/09 22:20:27;;;;;;;4.55;1.30;;;15.30;69.10;;;;;;5115489;28;20023;-39
2022/07/09 22:22:53;;;;;;;2.13;1.30;;;15.20;69.10;;;;;;5115699;28;20104;-38
2022/07/09 22:25:20;;;;;;;7.40;1.40;;;15.20;69.00;;;;;;5115699;28;20034;-38
2022/07/09 22:27:46;;;;;;;4.53;1.05;;;15.20;68.90;;;;;;5115335;28;20042;-40
2022/07/09 22:30:14;;;;;;;3.78;1.35;;;15.20;69.30;;;;;;5115381;28;20038;-39
2022/07/09 22:32:40;;;;;;;8.93;1.52;;;15.30;69.50;;;;;;5115332;28;20034;-38
2022/07/09 22:35:08;;;;;;;3.45;1.00;;;15.30;69.30;;;;;;5115573;28;20034;-38
2022/07/09 22:37:35;;;;;;;3.15;1.20;;;15.50;68.80;;;;;;5113160;28;20023;-40
2022/07/09 22:40:01;;;;;;;5.40;0.90;;;15.50;68.10;;;;;;5115025;28;20147;-40
2022/07/09 22:42:26;;;;;;;5.60;1.80;;;15.50;68.00;;;;;;5113823;28;20109;-39
2022/07/09 22:44:52;;;;;;;7.97;1.60;;;15.40;68.40;;;;;;5114381;28;20030;-38
2022/07/09 22:47:18;;;;;;;5.80;1.40;;;15.50;68.00;;;;;;5114971;28;20020;-38
2022/07/09 22:49:44;;;;;;;6.68;2.55;;;15.50;67.80;;;;;;5115189;28;20036;-38
2022/07/09 22:52:09;;;;;;;5.95;1.13;;;15.50;67.70;;;;;;5115531;28;20024;-37
2022/07/09 22:54:35;;;;;;;3.47;1.45;;;15.40;67.90;;;;;;5114726;28;20106;-38
2022/07/09 22:57:01;;;;;;;4.65;1.48;;;15.50;68.00;;;;;;5114999;28;20356;-40
2022/07/09 22:59:27;;;;;;;2.47;1.00;;;15.50;67.90;;;;;;5115395;28;20023;-38
2022/07/09 23:01:54;;;;;;;3.53;1.45;;;15.50;67.90;;;;;;5115081;28;20018;-38
2022/07/09 23:04:19;;;;;;;3.17;1.15;;;15.60;67.80;;;;;;5114718;28;20099;-38
2022/07/09 23:06:45;;;;;;;3.85;1.15;;;15.40;68.10;;;;;;5114400;28;20063;-38
2022/07/09 23:09:11;;;;;;;8.20;1.10;;;15.50;68.30;;;;;;5114640;28;20070;-39
2022/07/09 23:11:37;;;;;;;3.97;1.60;;;15.40;68.40;;;;;;5114489;28;20031;-39
2022/07/09 23:14:05;;;;;;;5.20;1.73;;;15.40;68.30;;;;;;5114237;28;20364;-40
2022/07/09 23:16:31;;;;;;;3.13;1.08;;;15.30;68.70;;;;;;5114284;28;20023;-39
2022/07/09 23:19:02;;;;;;;2.78;1.23;;;15.30;68.30;;;;;;5114328;28;20027;-39
2022/07/09 23:21:28;;;;;;;5.28;1.48;;;15.30;68.80;;;;;;5114431;28;20024;-39
2022/07/09 23:23:54;;;;;;;4.47;1.10;;;15.20;69.20;;;;;;5114082;28;20024;-39
2022/07/09 23:26:21;;;;;;;6.80;1.77;;;15.10;69.40;;;;;;5114344;28;20023;-39
2022/07/09 23:28:49;;;;;;;5.13;1.48;;;15.00;69.70;;;;;;5114051;28;20425;-38
2022/07/09 23:31:15;;;;;;;3.35;1.40;;;14.90;70.50;;;;;;5112760;28;20111;-39
2022/07/09 23:33:42;;;;;;;8.30;1.60;;;14.90;70.50;;;;;;5114230;28;20453;-38
2022/07/09 23:36:08;;;;;;;1.30;1.17;;;14.80;70.70;;;;;;5095960;28;20106;-38
2022/07/09 23:38:34;;;;;;;3.53;1.13;;;14.80;70.70;;;;;;5114826;28;20115;-38
2022/07/09 23:40:59;;;;;;;6.60;1.55;;;14.80;70.80;;;;;;5113118;28;20055;-39
2022/07/09 23:43:26;;;;;;;4.22;0.88;;;14.80;70.60;;;;;;5114073;28;20027;-38
2022/07/09 23:45:52;;;;;;;3.50;1.60;;;14.90;70.50;;;;;;5114547;28;20046;-38
2022/07/09 23:48:18;;;;;;;5.70;1.55;;;15.00;70.10;;;;;;5114368;28;20035;-38
2022/07/09 23:50:43;;;;;;;4.55;1.30;;;15.00;70.30;;;;;;5114084;28;20041;-39
2022/07/09 23:53:09;;;;;;;9.20;1.52;;;15.10;70.10;;;;;;5114260;28;20027;-38
2022/07/09 23:55:35;;;;;;;5.30;1.05;;;15.10;70.10;;;;;;5114072;28;20033;-38
2022/07/09 23:58:01;;;;;;;1.40;1.27;;;15.10;70.10;;;;;;5114217;28;20130;-38
